Time;durP1;ratioP1;P1;durP2;ratioP2;P2;SDS_P1;SDS_P2;PMS_P1;PMS_P2;Temp;Humidity;BMP_temperature;BMP_pressure;BME280_temperature;BME280_humidity;BME280_pressure;Samples;Min_cycle;Max_cycle;Signal;HPM_P1;HPM_P2
2023/05/22 00:03:03;;;;;;;8.95;4.88;;;;;;;16.59;60.89;99588.34;10398785;28;20052;-83
2023/05/22 00:08:10;;;;;;;8.55;4.50;;;;;;;16.54;61.07;99595.88;10395759;28;20042;-83
2023/05/22 00:13:12;;;;;;;8.88;5.03;;;;;;;16.50;60.98;99591.00;10410573;28;20458;-83
2023/05/22 00:18:14;;;;;;;8.88;4.90;;;;;;;16.48;60.92;99595.56;10393163;28;20041;-83
2023/05/22 00:23:16;;;;;;;7.88;4.72;;;;;;;16.43;60.97;99587.19;10388510;28;20080;-82
2023/05/22 00:28:19;;;;;;;7.68;4.65;;;;;;;16.38;61.16;99584.16;10399855;28;20060;-83
2023/05/22 00:33:21;;;;;;;7.50;4.60;;;;;;;16.35;61.13;99587.88;10401777;28;20141;-85
2023/05/22 00:38:31;;;;;;;8.80;4.80;;;;;;;16.22;62.10;99579.41;10408825;28;20052;-84
2023/05/22 00:43:33;;;;;;;9.07;5.05;;;;;;;16.11;61.74;99582.13;10399557;28;20049;-84
2023/05/22 00:48:35;;;;;;;7.50;4.50;;;;;;;16.05;61.73;99578.25;10379856;28;20144;-84
2023/05/22 00:53:37;;;;;;;8.25;4.80;;;;;;;16.00;61.59;99575.16;10373100;28;20149;-84
2023/05/22 00:58:40;;;;;;;7.00;4.47;;;;;;;16.03;61.79;99574.06;10404566;28;20041;-84
2023/05/22 01:03:45;;;;;;;9.77;5.00;;;;;;;16.04;61.70;99581.03;10385649;28;20137;-84
2023/05/22 01:08:48;;;;;;;11.52;4.88;;;;;;;16.00;62.06;99577.78;10406390;28;20042;-84
2023/05/22 01:13:59;;;;;;;9.15;5.68;;;;;;;16.03;62.02;99577.53;10395726;28;20049;-84
2023/05/22 01:19:19;;;;;;;11.57;5.50;;;;;;;16.05;62.08;99578.25;10402045;28;20514;-83
2023/05/22 01:24:50;;;;;;;10.50;5.28;;;;;;;16.00;62.27;99585.72;10395183;28;20065;-84
2023/05/22 01:29:55;;;;;;;;;;;;;;;15.82;63.16;99579.41;10407186;28;20041;-84
2023/05/22 01:35:01;;;;;;;8.45;4.82;;;;;;;15.79;61.82;99584.97;10391173;28;19979;-84
2023/05/22 01:40:06;;;;;;;6.65;4.38;;;;;;;15.68;62.09;99587.69;10391448;28;20046;-84
2023/05/22 01:45:10;;;;;;;8.63;4.80;;;;;;;15.59;62.49;99590.28;10373405;28;20450;-84
2023/05/22 01:50:13;;;;;;;9.32;5.00;;;;;;;15.57;62.40;99584.31;10386232;28;20072;-84
2023/05/22 01:55:21;;;;;;;8.98;4.85;;;;;;;15.55;62.77;99589.69;10412134;28;20045;-84
2023/05/22 02:00:26;;;;;;;10.25;5.75;;;;;;;15.14;62.65;99585.25;10411481;28;20033;-84
2023/05/22 02:05:31;;;;;;;12.60;5.10;;;;;;;15.14;63.06;99590.53;10395660;28;20045;-84
2023/05/22 02:10:35;;;;;;;10.35;5.43;;;;;;;15.20;63.01;99589.19;10395763;28;20124;-83
2023/05/22 02:15:37;;;;;;;8.05;4.72;;;;;;;15.24;62.95;99588.81;10411441;28;20099;-83
2023/05/22 02:20:40;;;;;;;8.88;5.03;;;;;;;15.18;63.42;99584.06;10397190;28;20044;-84
2023/05/22 02:25:42;;;;;;;7.60;4.47;;;;;;;15.14;63.30;99584.44;10403290;28;20493;-83
2023/05/22 02:30:44;;;;;;;10.07;5.25;;;;;;;15.13;63.12;99588.03;10411682;28;20494;-84
2023/05/22 02:35:46;;;;;;;8.25;4.78;;;;;;;15.08;63.25;99574.41;10411932;28;20057;-83
2023/05/22 02:40:48;;;;;;;9.32;5.07;;;;;;;15.10;62.96;99583.03;10413216;28;20502;-83
2023/05/22 02:45:50;;;;;;;9.05;5.15;;;;;;;15.13;62.97;99585.38;10412489;28;20083;-83
2023/05/22 02:50:52;;;;;;;11.32;5.95;;;;;;;15.05;63.09;99577.28;10401296;28;20078;-83
2023/05/22 02:55:57;;;;;;;8.10;4.95;;;;;;;15.01;63.18;99579.34;10401351;28;20495;-83
2023/05/22 03:00:59;;;;;;;9.40;4.45;;;;;;;15.02;63.01;99577.56;10399382;28;20045;-83
2023/05/22 03:06:03;;;;;;;8.32;4.82;;;;;;;14.96;62.97;99570.19;10382758;28;20167;-83
2023/05/22 03:11:06;;;;;;;8.88;5.03;;;;;;;14.85;62.90;99578.97;10387517;28;20041;-83
2023/05/22 03:16:08;;;;;;;10.30;5.03;;;;;;;14.77;62.89;99575.28;10387216;28;20140;-84
2023/05/22 03:21:15;;;;;;;8.30;4.50;;;;;;;14.69;63.00;99575.94;10384227;28;20088;-83
2023/05/22 03:26:17;;;;;;;7.40;4.68;;;;;;;14.61;63.05;99580.97;10396857;28;20140;-83
2023/05/22 03:31:28;;;;;;;11.70;5.05;;;;;;;14.62;63.73;99577.38;10366030;28;20073;-83
2023/05/22 03:36:37;;;;;;;9.38;5.20;;;;;;;14.61;63.45;99580.13;10365470;28;20046;-83
2023/05/22 03:41:39;;;;;;;7.75;4.93;;;;;;;14.57;63.74;99583.00;10385108;28;20048;-83
2023/05/22 03:46:41;;;;;;;10.35;5.50;;;;;;;14.62;63.42;99582.63;10404746;28;20045;-83
2023/05/22 03:51:44;;;;;;;8.10;4.75;;;;;;;14.65;63.32;99589.47;10403640;28;20055;-84
2023/05/22 03:56:46;;;;;;;8.00;4.85;;;;;;;14.76;63.26;99582.34;10411623;28;20049;-84
2023/05/22 04:01:47;;;;;;;9.70;5.20;;;;;;;14.91;62.82;99577.59;10398520;28;20072;-83
2023/05/22 04:06:52;;;;;;;8.35;4.88;;;;;;;14.97;62.90;99582.38;10409105;28;20045;-83
2023/05/22 04:11:57;;;;;;;8.60;5.07;;;;;;;15.16;63.22;99579.88;10410984;28;20041;-84
2023/05/22 04:16:59;;;;;;;9.35;5.25;;;;;;;15.37;62.27;99578.03;10397467;28;20082;-83
2023/05/22 04:22:02;;;;;;;8.27;4.90;;;;;;;15.46;62.33;99585.19;10409582;28;20413;-84
2023/05/22 04:27:07;;;;;;;8.90;5.18;;;;;;;15.89;61.56;99575.28;10407769;28;20601;-83
2023/05/22 04:32:09;;;;;;;9.70;5.40;;;;;;;16.40;60.64;99579.56;10403657;28;20058;-83
2023/05/22 04:37:13;;;;;;;8.43;5.13;;;;;;;16.98;59.67;99581.25;10388826;28;20554;-84
2023/05/22 04:42:16;;;;;;;8.65;5.15;;;;;;;18.08;58.00;99573.44;10399304;28;20038;-83
2023/05/22 04:47:18;;;;;;;6.63;4.30;;;;;;;19.10;55.99;99590.72;10405376;28;20045;-83
2023/05/22 04:52:20;;;;;;;7.80;4.93;;;;;;;19.57;54.63;99588.56;10396740;28;20040;-83
2023/05/22 04:57:26;;;;;;;7.93;5.18;;;;;;;20.22;53.63;99588.72;10369996;28;20507;-83
2023/05/22 05:02:30;;;;;;;8.85;5.07;;;;;;;20.32;52.60;99591.25;10403532;28;20037;-84
2023/05/22 05:07:36;;;;;;;11.57;4.97;;;;;;;19.87;53.29;99596.88;10404315;28;20388;-83
2023/05/22 05:12:38;;;;;;;8.25;4.97;;;;;;;20.25;52.87;99596.38;10384389;28;20057;-84
2023/05/22 05:17:41;;;;;;;7.82;4.60;;;;;;;20.64;51.72;99598.50;10386146;28;20145;-84
2023/05/22 05:22:44;;;;;;;10.60;5.20;;;;;;;21.11;51.07;99583.56;10406733;28;20064;-84
2023/05/22 05:27:49;;;;;;;6.63;4.45;;;;;;;21.17;49.96;99590.06;10380602;28;20060;-83
2023/05/22 05:32:56;;;;;;;6.93;4.32;;;;;;;20.45;50.98;99596.94;10405718;28;21690;-84
2023/05/22 05:38:06;;;;;;;8.68;4.95;;;;;;;20.05;51.96;99602.13;10383135;28;20496;-83
2023/05/22 05:43:14;;;;;;;8.52;4.72;;;;;;;20.17;52.23;99598.19;10385066;28;20053;-83
2023/05/22 05:48:18;;;;;;;7.70;4.70;;;;;;;20.26;52.07;99598.03;10400220;28;20553;-83
2023/05/22 05:53:22;;;;;;;8.38;4.90;;;;;;;20.01;52.57;99604.25;10404932;28;20654;-83
2023/05/22 05:58:30;;;;;;;8.80;5.07;;;;;;;20.15;52.56;99602.81;10390378;28;20041;-83
2023/05/22 06:03:54;;;;;;;7.75;4.72;;;;;;;20.22;52.66;99612.63;10391933;28;20065;-83
2023/05/22 06:09:06;;;;;;;8.15;5.10;;;;;;;20.55;52.37;99604.75;10377984;28;20099;-83
2023/05/22 06:14:22;;;;;;;9.90;5.47;;;;;;;20.75;52.25;99608.81;10392688;28;20514;-83
2023/05/22 06:19:29;;;;;;;8.98;5.90;;;;;;;20.95;52.28;99610.16;10395029;28;20038;-83
2023/05/22 06:24:32;;;;;;;8.65;5.20;;;;;;;21.14;52.23;99603.69;10396307;28;20061;-84
2023/05/22 06:29:40;;;;;;;8.98;5.20;;;;;;;21.58;51.65;99597.84;10373798;28;20565;-82
2023/05/22 06:34:46;;;;;;;9.38;5.55;;;;;;;21.84;51.34;99603.75;10400455;28;20578;-83
2023/05/22 06:39:54;;;;;;;8.57;5.05;;;;;;;21.68;51.50;99608.31;10401166;28;20046;-83
2023/05/22 06:45:06;;;;;;;7.93;5.30;;;;;;;21.71;51.67;99607.97;10400800;28;20103;-83
2023/05/22 06:50:20;;;;;;;8.48;5.03;;;;;;;22.02;51.53;99610.69;10380708;28;20517;-83
2023/05/22 06:55:22;;;;;;;8.88;4.95;;;;;;;22.22;51.09;99612.81;10403141;28;20069;-83
2023/05/22 07:00:35;;;;;;;8.57;5.10;;;;;;;22.55;50.30;99608.13;10392132;28;20456;-83
2023/05/22 07:05:50;;;;;;;9.10;5.47;;;;;;;22.63;50.33;99614.25;10404124;28;20049;-82
2023/05/22 07:10:52;;;;;;;7.82;5.28;;;;;;;22.62;50.24;99607.25;10407842;28;20044;-83
2023/05/22 07:15:55;;;;;;;7.25;5.05;;;;;;;22.66;50.31;99613.06;10395569;28;20084;-83
2023/05/22 07:21:03;;;;;;;9.88;4.90;;;;;;;22.80;50.06;99612.31;10407565;28;20099;-83
2023/05/22 07:26:07;;;;;;;8.20;4.80;;;;;;;22.90;50.25;99612.09;10398809;28;20065;-86
2023/05/22 07:31:13;;;;;;;6.78;4.55;;;;;;;22.95;50.22;99610.56;10406305;28;20042;-85
2023/05/22 07:36:17;;;;;;;8.02;5.15;;;;;;;23.31;49.57;99608.06;10409957;28;20083;-86
2023/05/22 07:41:21;;;;;;;7.35;4.60;;;;;;;23.63;49.02;99614.97;10392294;28;20045;-85
2023/05/22 07:46:27;;;;;;;8.38;5.47;;;;;;;23.70;48.31;99602.53;10386449;28;20455;-85
2023/05/22 07:51:39;;;;;;;7.32;4.80;;;;;;;24.06;47.42;99608.81;10400625;28;20037;-85
2023/05/22 07:56:45;;;;;;;7.47;4.78;;;;;;;24.69;46.54;99600.16;10404601;28;20053;-85
2023/05/22 08:01:50;;;;;;;7.47;4.70;;;;;;;24.95;46.21;99606.63;10381644;28;20387;-86
2023/05/22 08:06:52;;;;;;;8.02;4.43;;;;;;;25.29;45.69;99611.22;10379063;28;20096;-85
2023/05/22 08:11:55;;;;;;;7.78;4.97;;;;;;;25.76;44.32;99599.88;10391820;28;20044;-81
2023/05/22 08:16:59;;;;;;;8.25;4.95;;;;;;;25.68;43.55;99606.22;10400054;28;20172;-82
2023/05/22 08:22:02;;;;;;;7.88;4.70;;;;;;;26.05;43.65;99601.50;10387888;28;20479;-82
2023/05/22 08:27:04;;;;;;;6.95;4.40;;;;;;;26.27;43.56;99603.03;10402580;28;20057;-84
2023/05/22 08:32:07;;;;;;;7.13;4.32;;;;;;;26.45;42.81;99597.94;10408572;28;20128;-84
2023/05/22 08:37:15;;;;;;;6.93;4.60;;;;;;;26.52;41.63;99596.13;10401083;28;20080;-84
2023/05/22 08:42:18;;;;;;;6.85;4.55;;;;;;;26.92;41.73;99592.53;10400940;28;20398;-84
2023/05/22 08:47:24;;;;;;;8.30;4.95;;;;;;;27.52;41.33;99594.22;10398976;28;20758;-82
2023/05/22 08:52:36;;;;;;;7.80;4.47;;;;;;;27.79;39.64;99589.66;10383431;28;20061;-85
2023/05/22 08:57:39;;;;;;;6.93;4.20;;;;;;;28.33;39.18;99579.34;10395369;28;20870;-85
2023/05/22 09:02:41;;;;;;;6.80;4.18;;;;;;;28.13;39.05;99589.34;10402892;28;20030;-85
2023/05/22 09:07:44;;;;;;;6.80;4.05;;;;;;;28.25;38.91;99593.84;10396697;28;20049;-85
2023/05/22 09:12:59;;;;;;;9.02;4.30;;;;;;;28.54;36.67;99584.41;10400413;28;20117;-85
2023/05/22 09:18:05;;;;;;;7.60;4.47;;;;;;;28.22;38.66;99582.66;10408664;28;20046;-85
2023/05/22 09:23:16;;;;;;;7.63;4.43;;;;;;;28.03;37.34;99578.19;10408775;28;20038;-84
2023/05/22 09:28:19;;;;;;;6.70;4.30;;;;;;;27.89;38.19;99587.34;10396565;28;20057;-85
2023/05/22 09:33:22;;;;;;;6.68;4.20;;;;;;;27.73;38.16;99587.81;10391519;28;20080;-85
2023/05/22 09:38:27;;;;;;;6.65;4.13;;;;;;;27.87;36.93;99589.41;10409206;28;20052;-85
2023/05/22 09:43:32;;;;;;;6.80;4.03;;;;;;;28.24;37.42;99580.59;10391233;28;20661;-85
2023/05/22 09:48:37;;;;;;;7.80;4.47;;;;;;;28.45;37.35;99574.94;10407698;28;20037;-84
2023/05/22 09:53:42;;;;;;;6.35;4.03;;;;;;;28.54;35.92;99575.50;10393462;28;20590;-84
2023/05/22 09:58:46;;;;;;;8.48;4.43;;;;;;;28.28;37.09;99582.63;10390643;28;20047;-84
2023/05/22 10:03:51;;;;;;;8.45;4.68;;;;;;;28.28;37.38;99579.13;10406609;28;20120;-84
2023/05/22 10:08:59;;;;;;;7.45;4.72;;;;;;;27.78;37.85;99580.75;10407971;28;20045;-84
2023/05/22 10:14:03;;;;;;;9.13;4.90;;;;;;;27.50;38.30;99582.84;10407233;28;20052;-84
2023/05/22 10:19:07;;;;;;;8.07;5.13;;;;;;;27.53;39.12;99587.78;10402672;28;20048;-84
2023/05/22 10:24:09;;;;;;;6.78;4.82;;;;;;;27.50;39.26;99583.66;10399225;28;20053;-85
2023/05/22 10:29:16;;;;;;;7.15;4.70;;;;;;;27.48;39.28;99585.72;10410202;28;20060;-85
2023/05/22 10:34:43;;;;;;;7.38;5.20;;;;;;;27.46;39.52;99573.56;10362379;28;20442;-85
2023/05/22 10:40:06;;;;;;;10.30;5.18;;;;;;;27.44;39.26;99563.00;10381908;28;20410;-85
2023/05/22 10:45:10;;;;;;;10.80;5.72;;;;;;;27.43;40.23;99561.38;10395425;28;20120;-84
2023/05/22 10:50:13;;;;;;;9.50;5.20;;;;;;;27.27;40.21;99547.53;10405235;28;20455;-85
2023/05/22 10:55:21;;;;;;;9.13;5.05;;;;;;;27.26;38.67;99553.97;10407003;28;20045;-85
2023/05/22 11:00:24;;;;;;;10.07;5.50;;;;;;;27.36;39.36;99546.31;10402310;28;20044;-85
2023/05/22 11:05:33;;;;;;;8.75;5.88;;;;;;;27.62;39.65;99546.25;10409853;28;20103;-85
2023/05/22 11:10:54;;;;;;;9.63;5.53;;;;;;;28.04;38.50;99534.13;10410019;28;20124;-85
2023/05/22 11:15:57;;;;;;;8.77;5.22;;;;;;;28.07;38.25;99529.19;10411012;28;20453;-85
2023/05/22 11:20:59;;;;;;;9.20;5.22;;;;;;;28.24;37.71;99535.69;10408239;28;20135;-85
2023/05/22 11:26:23;;;;;;;7.95;5.10;;;;;;;28.16;36.24;99525.19;10404734;28;20490;-85
2023/05/22 11:31:28;;;;;;;8.05;5.55;;;;;;;28.05;37.54;99522.34;10402942;28;20037;-85
2023/05/22 11:36:31;;;;;;;8.13;5.25;;;;;;;28.04;37.74;99518.84;10404256;28;20052;-85
2023/05/22 11:41:33;;;;;;;8.77;5.20;;;;;;;28.00;37.98;99519.47;10400815;28;20042;-85
2023/05/22 11:46:35;;;;;;;8.10;5.22;;;;;;;27.89;37.77;99501.34;10400311;28;20415;-84
2023/05/22 11:51:38;;;;;;;8.27;5.28;;;;;;;27.85;38.19;99498.22;10401113;28;20046;-85
2023/05/22 11:56:40;;;;;;;8.95;5.43;;;;;;;28.02;37.97;99496.72;10401705;28;20125;-85
2023/05/22 12:01:42;;;;;;;8.57;5.30;;;;;;;28.00;36.63;99493.41;10385709;28;20148;-84
2023/05/22 12:06:44;;;;;;;7.65;4.72;;;;;;;27.75;37.33;99491.69;10410361;28;20038;-84
2023/05/22 12:11:47;;;;;;;7.15;4.70;;;;;;;28.05;37.15;99495.47;10399160;28;20041;-85
2023/05/22 12:16:51;;;;;;;7.18;4.43;;;;;;;27.85;36.90;99484.00;10392187;28;20490;-85
2023/05/22 12:21:53;;;;;;;7.35;4.80;;;;;;;27.64;36.91;99493.13;10410431;28;20630;-84
2023/05/22 12:26:55;;;;;;;8.48;4.90;;;;;;;27.63;37.58;99493.34;10403798;28;20522;-85
2023/05/22 12:32:02;;;;;;;8.00;4.90;;;;;;;27.97;36.90;99471.53;10408206;28;20059;-85
2023/05/22 12:37:19;;;;;;;8.32;5.03;;;;;;;27.96;36.38;99484.13;10384743;28;20040;-84
2023/05/22 12:42:22;;;;;;;8.23;5.13;;;;;;;28.09;36.51;99476.00;10403478;28;20041;-85
2023/05/22 12:47:24;;;;;;;9.13;5.30;;;;;;;28.02;36.38;99477.06;10403289;28;20059;-84
2023/05/22 12:52:26;;;;;;;9.30;5.38;;;;;;;27.40;37.54;99478.50;10378635;28;20762;-85
2023/05/22 12:57:28;;;;;;;8.05;4.72;;;;;;;27.59;37.70;99473.28;10405059;28;20045;-84
2023/05/22 13:02:30;;;;;;;7.93;4.72;;;;;;;27.52;37.17;99476.00;10407160;28;20046;-85
2023/05/22 13:07:35;;;;;;;7.97;4.60;;;;;;;27.75;37.33;99472.88;10392871;28;20842;-85
2023/05/22 13:12:37;;;;;;;8.80;4.80;;;;;;;27.69;37.02;99468.31;10398974;28;20373;-84
2023/05/22 13:17:40;;;;;;;9.45;5.00;;;;;;;27.73;37.11;99461.50;10400594;28;20044;-84
2023/05/22 13:22:42;;;;;;;7.13;4.65;;;;;;;27.75;37.31;99472.88;10406003;28;20124;-85
2023/05/22 13:27:44;;;;;;;7.95;4.88;;;;;;;27.77;37.03;99473.47;10391871;28;20136;-85
2023/05/22 13:32:46;;;;;;;8.30;5.10;;;;;;;28.01;36.79;99478.13;10393678;28;20064;-85
2023/05/22 13:37:49;;;;;;;7.63;5.30;;;;;;;28.16;37.07;99487.53;10408908;28;20045;-84
2023/05/22 13:42:51;;;;;;;6.57;4.82;;;;;;;28.05;37.07;99484.72;10390720;28;20050;-85
2023/05/22 13:47:53;;;;;;;8.43;5.50;;;;;;;28.30;37.01;99482.94;10391258;28;20088;-83
2023/05/22 13:52:55;;;;;;;10.68;5.93;;;;;;;28.51;36.97;99471.00;10408284;28;20091;-84
2023/05/22 13:57:57;;;;;;;9.52;5.95;;;;;;;28.62;37.01;99473.84;10407877;28;20045;-83
2023/05/22 14:02:59;;;;;;;9.68;5.82;;;;;;;28.46;37.28;99463.56;10407134;28;20053;-83
2023/05/22 14:08:01;;;;;;;9.90;6.72;;;;;;;28.23;37.75;99464.13;10408161;28;20099;-83
2023/05/22 14:13:03;;;;;;;10.65;7.13;;;;;;;28.05;38.55;99450.59;10408321;28;20420;-83
2023/05/22 14:18:05;;;;;;;11.80;7.13;;;;;;;28.16;38.50;99457.13;10402473;28;20051;-85
2023/05/22 14:23:07;;;;;;;9.25;6.32;;;;;;;28.28;37.88;99458.09;10411501;28;20095;-84
2023/05/22 14:28:10;;;;;;;10.90;6.75;;;;;;;28.27;37.94;99453.75;10430444;28;20131;-84
2023/05/22 14:33:12;;;;;;;11.43;6.85;;;;;;;28.12;38.37;99459.44;10407972;28;20034;-83
2023/05/22 14:38:14;;;;;;;11.45;6.68;;;;;;;28.05;38.38;99457.84;10402816;28;20049;-84
2023/05/22 14:43:16;;;;;;;10.07;6.50;;;;;;;27.93;38.28;99459.56;10388308;28;20046;-84
2023/05/22 14:48:19;;;;;;;10.52;7.28;;;;;;;27.73;38.50;99456.94;10401637;28;20124;-83
2023/05/22 14:53:22;;;;;;;10.52;6.90;;;;;;;27.60;38.72;99481.16;10403788;28;20044;-84
2023/05/22 14:58:24;;;;;;;10.50;6.95;;;;;;;27.38;38.83;99464.47;10407163;28;20077;-84
2023/05/22 15:03:26;;;;;;;11.57;7.47;;;;;;;27.09;39.13;99470.28;10380016;28;20045;-84
2023/05/22 15:08:27;;;;;;;12.02;6.65;;;;;;;26.99;39.37;99463.69;10390313;28;20080;-85
2023/05/22 15:13:29;;;;;;;10.25;6.25;;;;;;;26.91;39.65;99482.69;10385109;28;20589;-85
2023/05/22 15:18:31;;;;;;;10.68;6.80;;;;;;;26.68;40.36;99492.00;10390120;28;20045;-86
2023/05/22 15:23:34;;;;;;;12.35;6.90;;;;;;;26.73;40.33;99501.28;10395390;28;20037;-85
2023/05/22 15:28:36;;;;;;;9.25;6.07;;;;;;;26.64;40.65;99503.31;10388605;28;20064;-86
2023/05/22 15:33:38;;;;;;;12.60;6.85;;;;;;;26.35;40.96;99491.06;10411095;28;20080;-86
2023/05/22 15:38:41;;;;;;;12.55;6.47;;;;;;;26.34;41.05;99484.09;10410628;28;20049;-86
2023/05/22 15:43:43;;;;;;;12.20;6.68;;;;;;;25.98;41.22;99477.38;10405696;28;20049;-86
2023/05/22 15:48:45;;;;;;;13.73;6.60;;;;;;;25.66;42.08;99484.22;10394286;28;20121;-86
2023/05/22 15:53:49;;;;;;;11.73;7.28;;;;;;;25.24;42.34;99479.84;10400280;28;20049;-85
2023/05/22 15:58:51;;;;;;;11.20;6.70;;;;;;;25.27;42.62;99484.78;10387453;28;20100;-85
2023/05/22 16:03:53;;;;;;;10.95;7.15;;;;;;;25.13;42.64;99480.38;10417153;28;20136;-85
2023/05/22 16:08:55;;;;;;;12.70;6.60;;;;;;;25.16;42.90;99471.13;10396476;28;20493;-86
2023/05/22 16:13:57;;;;;;;11.45;6.05;;;;;;;25.18;43.13;99466.41;10411481;28;20041;-83
2023/05/22 16:18:59;;;;;;;11.80;6.60;;;;;;;24.98;43.45;99453.72;10370109;28;20593;-85
2023/05/22 16:24:02;;;;;;;10.13;6.10;;;;;;;24.91;43.73;99468.09;10383759;28;20536;-85
2023/05/22 16:29:07;;;;;;;10.82;6.43;;;;;;;24.84;44.38;99478.72;10401456;28;20062;-86
2023/05/22 16:34:09;;;;;;;11.23;6.78;;;;;;;24.75;44.04;99495.13;10397235;28;20111;-87
2023/05/22 16:39:11;;;;;;;12.30;6.30;;;;;;;24.62;44.33;99502.97;10407530;28;20053;-85
2023/05/22 16:44:13;;;;;;;11.27;6.60;;;;;;;24.58;44.51;99512.41;10386651;28;20038;-85
2023/05/22 16:49:15;;;;;;;10.18;5.90;;;;;;;24.59;44.55;99524.75;10389476;28;20049;-85
2023/05/22 16:54:17;;;;;;;10.25;6.05;;;;;;;24.66;44.37;99521.13;10401928;28;20041;-85
2023/05/22 16:59:19;;;;;;;10.00;6.13;;;;;;;24.56;44.70;99517.94;10399451;28;20055;-85
2023/05/22 17:04:21;;;;;;;10.25;6.07;;;;;;;24.44;44.75;99523.97;10393264;28;20071;-86
2023/05/22 17:09:22;;;;;;;10.40;6.40;;;;;;;24.36;45.08;99529.44;10391024;28;20487;-85
2023/05/22 17:14:25;;;;;;;11.55;6.05;;;;;;;24.39;45.22;99537.09;10405909;28;20140;-86
2023/05/22 17:19:27;;;;;;;9.82;6.15;;;;;;;24.26;45.33;99538.63;10379016;28;20424;-86
2023/05/22 17:24:29;;;;;;;11.52;6.45;;;;;;;24.34;45.17;99539.50;10406935;28;20116;-86
2023/05/22 17:29:31;;;;;;;12.15;5.93;;;;;;;24.29;45.42;99551.59;10408233;28;20546;-85
2023/05/22 17:34:33;;;;;;;12.27;5.90;;;;;;;24.27;45.54;99558.13;10403892;28;20045;-86
2023/05/22 17:39:35;;;;;;;11.18;6.03;;;;;;;24.13;45.81;99559.81;10406673;28;20046;-86
2023/05/22 17:44:36;;;;;;;10.18;6.57;;;;;;;24.08;46.01;99570.22;10407784;28;20510;-86
2023/05/22 17:49:38;;;;;;;13.05;6.90;;;;;;;23.89;46.26;99583.31;10398527;28;20510;-86
2023/05/22 17:54:40;;;;;;;10.55;6.22;;;;;;;23.92;46.27;99585.63;10385588;28;20080;-85
2023/05/22 17:59:43;;;;;;;12.73;6.90;;;;;;;23.80;46.59;99590.59;10397276;28;20042;-86
2023/05/22 18:04:44;;;;;;;12.32;6.60;;;;;;;23.64;46.37;99596.09;10383338;28;20046;-85
2023/05/22 18:09:46;;;;;;;11.85;6.75;;;;;;;23.53;46.63;99598.41;10401010;28;20509;-86
2023/05/22 18:14:49;;;;;;;13.20;7.32;;;;;;;23.25;47.34;99611.47;10396119;28;20049;-86
2023/05/22 18:19:51;;;;;;;20.25;7.78;;;;;;;23.05;47.51;99620.97;10400005;28;20053;-86
2023/05/22 18:24:53;;;;;;;16.75;7.63;;;;;;;22.96;47.77;99622.91;10412430;28;20491;-85
2023/05/22 18:29:55;;;;;;;19.98;8.63;;;;;;;22.76;48.06;99632.34;10402221;28;20046;-86
2023/05/22 18:34:57;;;;;;;18.13;8.55;;;;;;;22.61;48.54;99637.59;10397980;28;20045;-86
2023/05/22 18:39:59;;;;;;;17.55;8.50;;;;;;;22.52;49.19;99619.97;10408781;28;20414;-87
2023/05/22 18:45:01;;;;;;;22.08;8.88;;;;;;;22.42;49.71;99615.84;10376332;28;20049;-88
2023/05/22 18:50:04;;;;;;;19.67;9.23;;;;;;;22.12;50.74;99614.00;10402855;28;20102;-87
2023/05/22 18:55:06;;;;;;;21.38;10.48;;;;;;;21.98;50.27;99604.88;10412910;28;20053;-87
2023/05/22 19:00:09;;;;;;;19.55;10.48;;;;;;;21.76;50.82;99603.78;10401435;28;20043;-88
2023/05/22 19:05:11;;;;;;;23.10;10.80;;;;;;;21.56;51.41;99623.78;10393279;28;20049;-87
2023/05/22 19:10:13;;;;;;;24.10;11.02;;;;;;;21.38;51.75;99630.28;10377823;28;20129;-87
2023/05/22 19:15:15;;;;;;;26.95;11.45;;;;;;;21.20;51.93;99632.25;10413990;28;20056;-87
2023/05/22 19:20:17;;;;;;;23.02;10.82;;;;;;;21.20;52.02;99645.56;10409792;28;20040;-86
2023/05/22 19:25:19;;;;;;;26.17;10.85;;;;;;;21.17;52.20;99645.91;10412856;28;20057;-86
2023/05/22 19:30:21;;;;;;;23.17;10.65;;;;;;;21.27;52.36;99658.06;10408045;28;20042;-85
2023/05/22 19:35:23;;;;;;;24.60;11.95;;;;;;;21.29;52.16;99660.53;10393322;28;20041;-85
2023/05/22 19:40:25;;;;;;;26.13;11.52;;;;;;;21.11;52.54;99663.34;10412237;28;20045;-85
2023/05/22 19:45:27;;;;;;;23.13;11.57;;;;;;;21.04;52.39;99663.19;10403858;28;20115;-85
2023/05/22 19:50:29;;;;;;;28.63;12.43;;;;;;;21.05;52.68;99680.78;10411806;28;20033;-85
2023/05/22 19:55:32;;;;;;;25.88;11.43;;;;;;;20.81;53.03;99688.72;10396757;28;20054;-86
2023/05/22 20:00:36;;;;;;;26.50;11.75;;;;;;;20.82;53.28;99670.97;10395265;28;20056;-85
2023/05/22 20:05:39;;;;;;;24.70;11.52;;;;;;;20.88;53.15;99683.59;10410063;28;20441;-85
2023/05/22 20:10:41;;;;;;;25.45;12.10;;;;;;;20.87;53.17;99685.41;10411061;28;20576;-86
2023/05/22 20:15:46;;;;;;;24.92;11.90;;;;;;;20.79;53.34;99684.56;10409161;28;20050;-86
2023/05/22 20:20:48;;;;;;;28.08;12.13;;;;;;;20.81;53.07;99683.41;10408806;28;20045;-85
2023/05/22 20:25:50;;;;;;;27.60;12.40;;;;;;;20.71;53.36;99684.53;10409768;28;20152;-86
2023/05/22 20:30:52;;;;;;;24.58;12.13;;;;;;;20.52;53.69;99695.44;10408895;28;20112;-85
2023/05/22 20:35:54;;;;;;;24.95;12.43;;;;;;;20.36;53.87;99709.44;10385354;28;20068;-86
2023/05/22 20:40:58;;;;;;;22.95;11.95;;;;;;;20.17;54.68;99704.41;10407667;28;20041;-86
2023/05/22 20:46:01;;;;;;;25.60;12.48;;;;;;;20.17;54.98;99720.31;10408442;28;20136;-85
2023/05/22 20:51:03;;;;;;;25.08;12.20;;;;;;;20.04;55.06;99735.84;10408832;28;20402;-85
2023/05/22 20:56:07;;;;;;;22.65;10.95;;;;;;;20.02;54.95;99728.03;10398526;28;20046;-85
2023/05/22 21:01:09;;;;;;;23.63;11.27;;;;;;;19.96;55.13;99733.13;10390132;28;20053;-85
2023/05/22 21:06:11;;;;;;;21.60;10.38;;;;;;;19.90;54.82;99739.06;10409596;28;20111;-86
2023/05/22 21:11:13;;;;;;;21.02;10.43;;;;;;;20.00;54.86;99745.09;10408650;28;20490;-85
2023/05/22 21:16:15;;;;;;;19.30;9.73;;;;;;;19.99;54.68;99743.44;10409157;28;20115;-86
2023/05/22 21:21:19;;;;;;;20.70;9.95;;;;;;;19.96;54.72;99751.72;10408531;28;20503;-86
2023/05/22 21:26:21;;;;;;;16.95;9.63;;;;;;;19.99;54.71;99749.56;10409185;28;20075;-86
2023/05/22 21:31:23;;;;;;;20.25;9.23;;;;;;;20.04;54.62;99739.34;10376964;28;20069;-85
2023/05/22 21:36:25;;;;;;;15.55;8.32;;;;;;;19.91;54.69;99740.75;10406324;28;20073;-85
2023/05/22 21:41:27;;;;;;;18.25;8.95;;;;;;;19.85;54.92;99749.28;10409927;28;20037;-85
2023/05/22 21:46:30;;;;;;;15.38;8.30;;;;;;;19.81;54.92;99755.88;10409092;28;20045;-85
2023/05/22 21:51:32;;;;;;;16.02;9.05;;;;;;;19.68;55.08;99764.25;10396936;28;20096;-85
2023/05/22 21:56:34;;;;;;;14.45;8.25;;;;;;;19.64;55.19;99770.00;10405556;28;20056;-85
2023/05/22 22:01:36;;;;;;;12.77;7.28;;;;;;;19.56;55.27;99765.47;10429069;28;20048;-87
2023/05/22 22:06:38;;;;;;;14.50;7.22;;;;;;;19.46;55.41;99778.81;10384856;28;20110;-87
2023/05/22 22:11:40;;;;;;;13.45;7.13;;;;;;;19.31;55.40;99780.31;10407631;28;20076;-87
2023/05/22 22:16:44;;;;;;;11.35;6.22;;;;;;;19.26;55.42;99779.94;10405008;28;20045;-87
2023/05/22 22:21:46;;;;;;;12.82;6.30;;;;;;;19.23;55.78;99792.66;10379848;28;20518;-87
2023/05/22 22:26:48;;;;;;;14.20;7.13;;;;;;;19.28;55.55;99793.03;10406325;28;20525;-87
2023/05/22 22:31:50;;;;;;;11.13;5.78;;;;;;;19.18;55.60;99805.53;10380474;28;20422;-86
2023/05/22 22:36:52;;;;;;;11.13;6.03;;;;;;;19.24;55.28;99813.72;10406423;28;20053;-87
2023/05/22 22:41:54;;;;;;;8.52;5.13;;;;;;;19.15;55.55;99813.78;10407088;28;20050;-87
2023/05/22 22:46:56;;;;;;;10.48;5.55;;;;;;;19.13;55.88;99813.09;10373107;28;20042;-87
2023/05/22 22:51:58;;;;;;;9.32;5.30;;;;;;;19.24;55.77;99818.19;10366649;28;20038;-87
2023/05/22 22:57:00;;;;;;;10.90;5.82;;;;;;;19.21;55.68;99813.19;10365499;28;20056;-86
2023/05/22 23:02:02;;;;;;;11.27;5.30;;;;;;;19.28;55.79;99811.59;10406872;28;20053;-88
2023/05/22 23:07:04;;;;;;;9.60;5.32;;;;;;;19.26;56.08;99811.75;10379628;28;20100;-87
2023/05/22 23:12:07;;;;;;;8.43;5.20;;;;;;;19.21;55.79;99819.34;10376227;28;20410;-87
2023/05/22 23:17:09;;;;;;;10.27;5.72;;;;;;;19.04;56.29;99808.69;10389824;28;20049;-87
2023/05/22 23:22:11;;;;;;;10.32;5.80;;;;;;;19.04;56.32;99809.53;10406513;28;20491;-87
2023/05/22 23:27:13;;;;;;;9.57;6.00;;;;;;;19.01;56.26;99809.75;10390030;28;20069;-87